Time;durP1;ratioP1;P1;durP2;ratioP2;P2;SDS_P1;SDS_P2;PMS_P1;PMS_P2;Temp;Humidity;BMP_temperature;BMP_pressure;BME280_temperature;BME280_humidity;BME280_pressure;Samples;Min_cycle;Max_cycle;Signal;HPM_P1;HPM_P2
2022/01/15 00:00:18;;;;;;;22.08;10.40;;;-2.20;99.90;;;;;;5073945;28;20044;-51
2022/01/15 00:02:45;;;;;;;22.98;9.85;;;-2.30;99.90;;;;;;5073837;28;20048;-50
2022/01/15 00:05:12;;;;;;;25.48;10.57;;;-2.30;99.90;;;;;;5070915;28;20048;-49
2022/01/15 00:07:39;;;;;;;;;;;-2.30;99.90;;;;;;5073979;28;20052;-50
2022/01/15 00:10:07;;;;;;;20.98;10.05;;;-2.40;99.90;;;;;;5073344;28;20385;-51
2022/01/15 00:12:40;;;;;;;24.27;10.68;;;-2.40;99.90;;;;;;5069633;28;20068;-54
2022/01/15 00:15:11;;;;;;;23.05;10.63;;;-2.30;99.90;;;;;;5073356;28;20155;-55
2022/01/15 00:20:11;;;;;;;25.70;12.70;;;-2.20;99.90;;;;;;5073455;28;20036;-50
2022/01/15 00:22:37;;;;;;;33.65;12.70;;;-2.20;99.90;;;;;;5072827;28;20044;-53
2022/01/15 00:25:05;;;;;;;34.25;12.98;;;-2.20;99.90;;;;;;5073910;28;20122;-50
2022/01/15 00:27:31;;;;;;;;;;;-2.20;99.90;;;;;;5073947;28;20140;-49
2022/01/15 00:29:58;;;;;;;30.42;11.82;;;-2.20;99.90;;;;;;5074069;28;19920;-49
2022/01/15 00:32:25;;;;;;;32.45;12.25;;;-2.10;99.90;;;;;;5078150;28;20052;-49
2022/01/15 00:34:52;;;;;;;26.05;11.35;;;-2.10;99.90;;;;;;5081675;28;20416;-52
2022/01/15 00:37:19;;;;;;;25.92;11.38;;;-2.30;99.90;;;;;;5073549;28;20115;-50
2022/01/15 00:39:46;;;;;;;24.90;10.25;;;-2.40;99.90;;;;;;5073903;28;20044;-48
2022/01/15 00:42:14;;;;;;;26.30;10.40;;;-2.40;99.90;;;;;;5073784;28;20041;-49
2022/01/15 00:44:42;;;;;;;22.83;10.30;;;-2.40;99.90;;;;;;5073688;28;20538;-49
2022/01/15 00:47:09;;;;;;;24.13;10.43;;;-2.30;99.90;;;;;;5073387;28;20048;-49
2022/01/15 00:49:36;;;;;;;28.70;10.85;;;-2.30;99.90;;;;;;5073621;28;20048;-51
2022/01/15 00:52:03;;;;;;;23.33;10.75;;;-2.30;99.90;;;;;;5073588;28;20090;-49
2022/01/15 00:54:29;;;;;;;20.35;10.05;;;-2.30;99.90;;;;;;5073503;28;20037;-50
2022/01/15 00:56:56;;;;;;;22.60;10.82;;;-2.30;99.90;;;;;;5073072;28;20045;-49
2022/01/15 00:59:23;;;;;;;23.88;10.23;;;-2.30;99.90;;;;;;5073583;28;20546;-51
2022/01/15 01:01:50;;;;;;;23.90;10.27;;;-2.30;99.90;;;;;;5073306;28;20040;-51
2022/01/15 01:04:17;;;;;;;21.55;11.63;;;-2.30;99.90;;;;;;5073511;28;20044;-49
2022/01/15 01:06:44;;;;;;;23.73;10.50;;;-2.40;99.90;;;;;;5072913;28;20128;-50
2022/01/15 01:09:11;;;;;;;22.75;10.23;;;-2.40;99.90;;;;;;5073371;28;20037;-50
2022/01/15 01:11:45;;;;;;;;;;;-2.50;99.90;;;;;;5073443;28;20051;-49
2022/01/15 01:20:09;;;;;;;24.98;11.00;;;-2.20;99.90;;;;;;5073107;28;20044;-50
2022/01/15 01:22:55;;;;;;;22.85;10.88;;;-2.00;99.90;;;;;;5072941;28;20047;-49
2022/01/15 01:25:25;;;;;;;21.40;10.48;;;-1.90;99.90;;;;;;5072474;28;20098;-49
2022/01/15 01:27:55;;;;;;;18.88;10.07;;;-2.00;99.90;;;;;;5072987;28;20051;-49
2022/01/15 01:30:28;;;;;;;28.48;9.85;;;-2.20;99.90;;;;;;5072900;28;20048;-49
2022/01/15 01:35:41;;;;;;;25.75;11.50;;;-2.50;99.90;;;;;;5072227;28;20106;-49
2022/01/15 01:38:25;;;;;;;22.48;10.30;;;-2.50;99.90;;;;;;5072852;28;20036;-53
2022/01/15 01:40:52;;;;;;;23.92;10.65;;;-2.50;99.90;;;;;;5072666;28;20033;-49
2022/01/15 01:45:51;;;;;;;;;;;-2.50;99.90;;;;;;5072446;28;20060;-50
2022/01/15 01:48:18;;;;;;;156.80;17.33;;;-2.50;99.90;;;;;;5072597;28;19920;-50
2022/01/15 01:50:45;;;;;;;85.63;14.98;;;-2.40;99.90;;;;;;5054402;28;20444;-49
2022/01/15 01:53:11;;;;;;;47.17;13.02;;;-2.40;99.90;;;;;;5072465;28;20054;-50
2022/01/15 01:55:38;;;;;;;50.42;13.07;;;-2.40;99.90;;;;;;5071863;28;20041;-51
2022/01/15 01:58:05;;;;;;;26.77;10.70;;;-2.40;99.90;;;;;;5072102;28;20401;-50
2022/01/15 02:00:32;;;;;;;22.80;10.55;;;-2.40;99.90;;;;;;5072207;28;20554;-49
2022/01/15 02:03:00;;;;;;;25.08;11.45;;;-2.40;99.90;;;;;;5072228;28;20094;-51
2022/01/15 02:05:29;;;;;;;17.63;8.15;;;-2.40;99.90;;;;;;5071738;28;20074;-51
2022/01/15 02:07:55;;;;;;;20.92;7.85;;;-2.40;99.90;;;;;;5071770;28;20076;-49
2022/01/15 02:10:22;;;;;;;17.45;7.47;;;-2.40;99.90;;;;;;5072094;28;20036;-49
2022/01/15 02:12:51;;;;;;;12.40;7.00;;;-2.30;99.90;;;;;;5072067;28;20102;-52
2022/01/15 02:15:20;;;;;;;25.75;9.93;;;-2.30;99.90;;;;;;5071682;28;20033;-49
2022/01/15 02:17:49;;;;;;;19.10;9.27;;;-2.40;99.90;;;;;;5071935;28;20521;-49
2022/01/15 02:25:41;;;;;;;22.75;9.75;;;-2.30;99.90;;;;;;5071589;28;20114;-50
2022/01/15 02:28:08;;;;;;;27.58;8.63;;;-2.20;99.90;;;;;;5071989;28;20044;-50
2022/01/15 02:30:35;;;;;;;23.55;7.93;;;-2.20;99.90;;;;;;5071987;28;20041;-49
2022/01/15 02:33:04;;;;;;;19.65;7.88;;;-2.20;99.90;;;;;;5071578;28;20485;-54
2022/01/15 02:35:31;;;;;;;17.90;6.32;;;-2.10;99.90;;;;;;5071211;28;20044;-49
2022/01/15 02:38:03;;;;;;;25.38;8.23;;;-2.20;99.90;;;;;;5071772;28;20458;-51
2022/01/15 02:40:33;;;;;;;40.97;9.40;;;-2.10;99.90;;;;;;5071649;28;20051;-50
2022/01/15 02:43:03;;;;;;;60.63;10.15;;;-2.20;99.90;;;;;;5071520;28;20119;-53
2022/01/15 02:45:35;;;;;;;56.60;8.85;;;-2.20;99.90;;;;;;5070685;28;20045;-49
2022/01/15 02:48:16;;;;;;;26.05;8.63;;;-2.20;99.90;;;;;;5071771;28;20106;-49
2022/01/15 02:50:45;;;;;;;17.15;7.55;;;-2.20;99.90;;;;;;5071601;28;20102;-50
2022/01/15 02:53:17;;;;;;;15.63;7.25;;;-2.20;99.90;;;;;;5071438;28;20046;-51
2022/01/15 02:55:46;;;;;;;20.15;7.22;;;-2.20;99.90;;;;;;5053211;28;20397;-49
2022/01/15 02:58:14;;;;;;;17.35;8.55;;;-2.20;99.90;;;;;;5071459;28;20412;-49
2022/01/15 03:00:41;;;;;;;18.40;8.20;;;-2.20;99.90;;;;;;5071390;28;20049;-50
2022/01/15 03:03:08;;;;;;;;;;;-2.30;99.90;;;;;;5071910;28;20044;-52
2022/01/15 03:05:36;;;;;;;18.92;7.95;;;-2.40;99.90;;;;;;5070837;28;19920;-49
2022/01/15 03:08:03;;;;;;;;;;;-2.30;99.90;;;;;;5071939;28;20047;-50
2022/01/15 03:10:30;;;;;;;15.65;7.45;;;-2.30;99.90;;;;;;5071237;28;19966;-51
2022/01/15 03:12:59;;;;;;;14.95;6.93;;;-2.30;99.90;;;;;;5071289;28;20040;-50
2022/01/15 03:15:27;;;;;;;20.83;8.60;;;-2.40;99.90;;;;;;5070859;28;20052;-52
2022/01/15 03:17:54;;;;;;;19.58;7.90;;;-2.50;99.90;;;;;;5071396;28;20374;-51
2022/01/15 03:20:21;;;;;;;18.42;8.00;;;-2.50;99.90;;;;;;5071197;28;20127;-50
2022/01/15 03:22:48;;;;;;;18.15;8.27;;;-2.50;99.90;;;;;;5071237;28;20045;-50
2022/01/15 03:25:16;;;;;;;18.50;8.23;;;-2.40;99.90;;;;;;5071075;28;20045;-49
2022/01/15 03:27:43;;;;;;;18.15;6.70;;;-2.40;99.90;;;;;;5071199;28;20052;-49
2022/01/15 03:30:11;;;;;;;15.93;7.88;;;-2.30;99.90;;;;;;5071021;28;20554;-48
2022/01/15 03:32:42;;;;;;;11.02;5.78;;;-2.40;99.90;;;;;;5071301;28;20094;-49
2022/01/15 03:35:14;;;;;;;12.65;5.90;;;-2.40;99.90;;;;;;5070894;28;20044;-49
2022/01/15 03:37:41;;;;;;;10.77;4.80;;;-2.40;99.90;;;;;;5071453;28;20052;-49
2022/01/15 03:40:09;;;;;;;;;;;-2.30;99.90;;;;;;5071167;28;20550;-51
2022/01/15 03:42:36;;;;;;;11.82;5.28;;;-2.30;99.90;;;;;;5071328;28;19920;-51
2022/01/15 03:45:04;;;;;;;12.85;5.15;;;-2.30;99.90;;;;;;5071195;28;20045;-49
2022/01/15 03:47:31;;;;;;;10.73;4.80;;;-2.40;99.90;;;;;;5070751;28;20071;-50
2022/01/15 03:49:58;;;;;;;8.95;4.55;;;-2.50;99.90;;;;;;5070685;28;20054;-51
2022/01/15 03:52:25;;;;;;;7.50;3.65;;;-2.40;99.90;;;;;;5071045;28;20555;-50
2022/01/15 03:54:52;;;;;;;12.73;4.50;;;-2.40;99.90;;;;;;5070792;28;20136;-50
2022/01/15 03:57:19;;;;;;;7.97;4.65;;;-2.40;99.90;;;;;;5074131;28;20048;-48
2022/01/15 03:59:46;;;;;;;13.40;5.22;;;-2.50;99.90;;;;;;5074935;28;20086;-49
2022/01/15 04:02:13;;;;;;;14.10;6.30;;;-2.30;99.90;;;;;;5074617;28;20087;-49
2022/01/15 04:04:40;;;;;;;;;;;-2.20;99.90;;;;;;5074932;28;20083;-49
2022/01/15 04:07:07;;;;;;;19.52;8.20;;;-2.10;99.90;;;;;;5074029;28;20023;-49
2022/01/15 04:09:34;;;;;;;18.85;9.35;;;-2.00;99.90;;;;;;5074226;28;20050;-49
2022/01/15 04:12:01;;;;;;;27.48;9.15;;;-1.90;99.90;;;;;;5074344;28;20052;-49
2022/01/15 04:14:28;;;;;;;23.33;9.68;;;-1.90;99.90;;;;;;5074283;28;20044;-49
2022/01/15 04:16:55;;;;;;;21.30;10.90;;;-2.00;99.90;;;;;;5074270;28;20447;-49
2022/01/15 04:19:24;;;;;;;18.88;8.80;;;-2.00;99.90;;;;;;5074162;28;20044;-53
2022/01/15 04:21:50;;;;;;;16.02;7.10;;;-1.90;99.90;;;;;;5074042;28;20097;-51
2022/01/15 04:24:20;;;;;;;18.67;8.25;;;-2.00;99.90;;;;;;5074067;28;20489;-49
2022/01/15 04:26:48;;;;;;;19.05;7.50;;;-2.00;99.90;;;;;;5073867;28;20057;-49
2022/01/15 04:29:15;;;;;;;17.45;8.00;;;-2.00;99.90;;;;;;5074400;28;20061;-48
2022/01/15 04:31:50;;;;;;;21.13;7.97;;;-1.90;99.90;;;;;;5074116;28;20060;-50
2022/01/15 04:34:25;;;;;;;14.93;7.25;;;-1.90;99.90;;;;;;5073692;28;20040;-49
2022/01/15 04:36:55;;;;;;;16.17;6.57;;;-1.90;99.90;;;;;;5073622;28;20044;-51
2022/01/15 04:39:22;;;;;;;19.20;7.03;;;-1.90;99.90;;;;;;5073967;28;20510;-51
2022/01/15 04:41:49;;;;;;;18.67;7.20;;;-2.00;99.90;;;;;;5110082;22;20093;-55
2022/01/15 04:44:16;;;;;;;16.38;7.93;;;-2.00;99.90;;;;;;5109252;28;20193;-55
2022/01/15 04:46:43;;;;;;;17.50;7.20;;;-2.00;99.90;;;;;;5104689;28;20052;-54
2022/01/15 04:49:10;;;;;;;19.98;7.70;;;-2.00;99.90;;;;;;5114302;28;20495;-54
2022/01/15 04:51:37;;;;;;;17.02;7.80;;;-2.00;99.90;;;;;;5103608;28;20047;-55
2022/01/15 04:54:04;;;;;;;22.65;8.75;;;-1.90;99.90;;;;;;5094156;28;20040;-54
2022/01/15 04:56:31;;;;;;;;;;;-1.90;99.90;;;;;;5093861;28;20105;-55
2022/01/15 04:58:58;;;;;;;20.85;9.13;;;-1.90;99.90;;;;;;5093572;28;19927;-57
2022/01/15 05:01:25;;;;;;;20.40;8.60;;;-1.90;99.90;;;;;;5093479;28;20725;-56
2022/01/15 05:03:52;;;;;;;;;;;-1.90;99.90;;;;;;5094159;28;20076;-53
2022/01/15 05:06:19;;;;;;;24.40;12.80;;;-1.90;99.90;;;;;;5093104;28;19924;-53
2022/01/15 05:08:47;;;;;;;22.67;11.13;;;-1.90;99.90;;;;;;5093074;28;20078;-53
2022/01/15 05:11:26;;;;;;;29.98;12.85;;;-1.90;99.90;;;;;;5093483;28;20047;-54
2022/01/15 05:13:53;;;;;;;25.90;11.75;;;-1.90;99.90;;;;;;5093444;28;20075;-56
2022/01/15 05:16:20;;;;;;;34.95;13.00;;;-1.80;99.90;;;;;;5092851;28;20096;-54
2022/01/15 05:18:47;;;;;;;32.58;14.60;;;-1.90;99.90;;;;;;5093695;28;20045;-56
2022/01/15 05:21:14;;;;;;;28.83;12.90;;;-1.90;99.90;;;;;;5093286;28;20044;-55
2022/01/15 05:23:41;;;;;;;23.08;11.75;;;-1.90;99.90;;;;;;5093250;28;20074;-53
2022/01/15 05:26:10;;;;;;;24.58;12.02;;;-2.00;99.90;;;;;;5092149;28;20565;-56
2022/01/15 05:28:37;;;;;;;31.73;14.07;;;-2.10;99.90;;;;;;5092913;28;20079;-54
2022/01/15 05:31:04;;;;;;;28.27;13.30;;;-2.10;99.90;;;;;;5093187;28;20098;-53
2022/01/15 05:33:31;;;;;;;27.58;13.88;;;-2.10;99.90;;;;;;5093091;28;20127;-52
2022/01/15 05:35:58;;;;;;;29.67;14.90;;;-2.10;99.90;;;;;;5092525;28;20044;-54
2022/01/15 05:38:24;;;;;;;31.02;14.35;;;-2.20;99.90;;;;;;5093031;28;20044;-53
2022/01/15 05:40:51;;;;;;;34.08;14.63;;;-2.20;99.90;;;;;;5092771;28;20570;-56
2022/01/15 05:43:18;;;;;;;28.70;13.02;;;-2.20;99.90;;;;;;5093334;28;20044;-54
2022/01/15 05:45:45;;;;;;;31.48;14.40;;;-2.20;99.90;;;;;;5092412;28;20508;-52
2022/01/15 05:48:12;;;;;;;27.65;12.85;;;-2.20;99.90;;;;;;5092911;28;20601;-54
2022/01/15 05:50:39;;;;;;;29.83;12.32;;;-2.20;99.90;;;;;;5092757;28;20093;-55
2022/01/15 05:53:06;;;;;;;27.85;12.50;;;-2.20;99.90;;;;;;5092647;28;20044;-53
2022/01/15 05:55:33;;;;;;;47.90;18.70;;;-2.10;99.90;;;;;;5092154;28;20550;-53
2022/01/15 05:57:59;;;;;;;29.15;13.30;;;-2.10;99.90;;;;;;5092706;28;20044;-56
2022/01/15 06:00:26;;;;;;;29.95;14.63;;;-2.10;99.90;;;;;;5092436;28;20156;-55
2022/01/15 06:02:53;;;;;;;30.45;15.30;;;-2.10;99.90;;;;;;5092515;28;20493;-56
2022/01/15 06:05:20;;;;;;;34.75;15.52;;;-2.20;99.90;;;;;;5092425;28;20055;-55
2022/01/15 06:07:47;;;;;;;38.45;17.48;;;-2.20;99.90;;;;;;5092418;28;20739;-55
2022/01/15 06:10:14;;;;;;;34.95;15.57;;;-2.20;99.90;;;;;;5092211;28;20040;-53
2022/01/15 06:12:43;;;;;;;27.90;13.10;;;-2.30;99.90;;;;;;5092389;28;20082;-54
2022/01/15 06:15:12;;;;;;;27.65;11.70;;;-2.30;99.90;;;;;;5092004;28;20040;-55
2022/01/15 06:17:39;;;;;;;29.23;14.70;;;-2.30;99.90;;;;;;5092391;28;20072;-54
2022/01/15 06:20:08;;;;;;;23.65;12.10;;;-2.30;99.90;;;;;;5091440;28;20040;-52
2022/01/15 06:22:35;;;;;;;28.55;13.20;;;-2.40;99.90;;;;;;5092013;28;20481;-56
2022/01/15 06:25:03;;;;;;;;;;;-2.50;99.90;;;;;;5092721;28;20564;-55
2022/01/15 06:27:33;;;;;;;25.03;13.90;;;-2.50;99.90;;;;;;5092051;28;20340;-56
2022/01/15 06:30:00;;;;;;;23.95;12.55;;;-2.50;99.90;;;;;;5090678;28;20113;-56
2022/01/15 06:32:28;;;;;;;27.00;12.75;;;-2.40;99.90;;;;;;5091970;28;20082;-53
2022/01/15 06:34:55;;;;;;;26.83;12.52;;;-2.40;99.90;;;;;;5091474;28;20055;-53
2022/01/15 06:37:22;;;;;;;24.02;12.82;;;-2.40;99.90;;;;;;5091593;28;20084;-53
2022/01/15 06:39:49;;;;;;;22.50;11.77;;;-2.30;99.90;;;;;;5092166;28;20036;-52
2022/01/15 06:42:16;;;;;;;26.17;12.30;;;-2.20;99.90;;;;;;5091652;28;20067;-55
2022/01/15 06:44:43;;;;;;;26.90;12.77;;;-2.20;99.90;;;;;;5091145;28;20085;-56
2022/01/15 06:47:10;;;;;;;23.73;12.95;;;-2.20;99.90;;;;;;5091414;28;20047;-53
2022/01/15 06:49:37;;;;;;;23.70;12.57;;;-2.20;99.90;;;;;;5091563;28;20060;-55
2022/01/15 06:52:04;;;;;;;;;;;-2.10;99.90;;;;;;5091553;28;20039;-56
2022/01/15 06:54:31;;;;;;;24.50;11.15;;;-2.10;99.90;;;;;;5089698;28;19965;-55
2022/01/15 06:56:57;;;;;;;25.60;12.77;;;-2.10;99.90;;;;;;5089505;28;20078;-55
2022/01/15 06:59:25;;;;;;;27.70;11.93;;;-2.10;99.90;;;;;;5091569;28;20048;-55
2022/01/15 07:01:51;;;;;;;24.27;11.98;;;-2.00;99.90;;;;;;5091341;28;20078;-54
2022/01/15 07:04:19;;;;;;;23.20;11.65;;;-2.00;99.90;;;;;;5091539;28;20042;-54
2022/01/15 07:06:45;;;;;;;24.10;11.90;;;-1.90;99.90;;;;;;5091389;28;20139;-55
2022/01/15 07:09:12;;;;;;;28.73;12.90;;;-1.90;99.90;;;;;;5091570;28;20173;-55
2022/01/15 07:11:39;;;;;;;26.73;13.05;;;-1.80;99.90;;;;;;5091277;28;20131;-56
2022/01/15 07:14:06;;;;;;;32.47;13.88;;;-1.80;99.90;;;;;;5091628;28;20450;-55
2022/01/15 07:16:34;;;;;;;28.98;13.38;;;-1.80;99.90;;;;;;5091088;28;20069;-56
2022/01/15 07:19:02;;;;;;;44.15;20.55;;;-1.70;99.90;;;;;;5091077;28;20492;-55
2022/01/15 07:21:29;;;;;;;45.38;19.95;;;-1.70;99.90;;;;;;5091377;28;20446;-55
2022/01/15 07:23:56;;;;;;;40.30;17.60;;;-1.70;99.90;;;;;;5091350;28;20731;-53
2022/01/15 07:26:23;;;;;;;38.72;17.42;;;-1.70;99.90;;;;;;5090979;28;20046;-55
2022/01/15 07:28:49;;;;;;;40.22;17.77;;;-1.70;99.90;;;;;;5091549;28;20044;-55
2022/01/15 07:31:16;;;;;;;37.20;17.88;;;-1.70;99.90;;;;;;5093158;28;20066;-54
2022/01/15 07:33:43;;;;;;;37.17;16.85;;;-1.60;99.90;;;;;;5095328;28;20040;-55
2022/01/15 07:36:12;;;;;;;33.30;14.50;;;-1.60;99.90;;;;;;5094431;28;20546;-56
2022/01/15 07:38:38;;;;;;;33.88;14.98;;;-1.60;99.90;;;;;;5095238;28;20065;-56
2022/01/15 07:41:06;;;;;;;27.95;13.95;;;-1.60;99.90;;;;;;5091771;28;20046;-55
2022/01/15 07:43:33;;;;;;;26.08;12.77;;;-1.50;99.90;;;;;;5095016;28;20078;-55
2022/01/15 07:46:00;;;;;;;18.48;10.63;;;-1.60;99.90;;;;;;5094851;28;20048;-54
2022/01/15 07:48:26;;;;;;;33.08;16.38;;;-1.50;99.90;;;;;;5095134;28;20043;-55
2022/01/15 07:50:53;;;;;;;44.13;19.92;;;-1.50;99.90;;;;;;5094530;28;20067;-55
2022/01/15 07:53:21;;;;;;;50.08;19.95;;;-1.50;99.90;;;;;;5076826;28;20040;-56
2022/01/15 07:55:48;;;;;;;29.30;13.02;;;-1.50;99.90;;;;;;5077015;28;20119;-53
2022/01/15 07:58:14;;;;;;;29.15;13.88;;;-1.50;99.90;;;;;;5094803;28;20086;-56
2022/01/15 08:00:41;;;;;;;29.40;13.60;;;-1.50;99.90;;;;;;5093953;28;20068;-57
2022/01/15 08:03:08;;;;;;;;;;;-1.50;99.90;;;;;;5095453;28;20074;-56
2022/01/15 08:05:35;;;;;;;24.58;12.25;;;-1.50;99.90;;;;;;5094457;28;19926;-53
2022/01/15 08:08:02;;;;;;;26.20;12.43;;;-1.50;99.90;;;;;;5094786;28;20117;-55
2022/01/15 08:10:29;;;;;;;31.20;13.43;;;-1.40;99.90;;;;;;5094124;28;20500;-55
2022/01/15 08:12:56;;;;;;;26.13;11.80;;;-1.40;99.90;;;;;;5094529;28;20040;-55
2022/01/15 08:15:25;;;;;;;30.70;13.00;;;-1.30;99.90;;;;;;5094203;28;20506;-54
2022/01/15 08:17:52;;;;;;;32.45;13.73;;;-1.20;99.90;;;;;;5094680;28;20048;-56
2022/01/15 08:20:19;;;;;;;30.98;14.95;;;-1.20;99.90;;;;;;5094099;28;20507;-53
2022/01/15 08:22:46;;;;;;;42.28;14.63;;;-1.20;99.90;;;;;;5075934;28;20115;-56
2022/01/15 08:25:18;;;;;;;32.25;15.13;;;-1.20;99.90;;;;;;5073797;28;20071;-55
2022/01/15 08:27:46;;;;;;;35.05;15.00;;;-1.20;99.90;;;;;;5074049;28;20078;-52
2022/01/15 08:30:13;;;;;;;30.90;14.48;;;-1.20;99.90;;;;;;5074536;28;20496;-55
2022/01/15 08:32:40;;;;;;;34.35;14.20;;;-1.20;99.90;;;;;;5073747;28;20087;-56
2022/01/15 08:35:07;;;;;;;34.38;15.13;;;-1.10;99.90;;;;;;5073663;28;20072;-55
2022/01/15 08:37:39;;;;;;;27.42;13.32;;;-1.10;99.90;;;;;;5073768;28;20334;-55
2022/01/15 08:40:07;;;;;;;25.17;12.77;;;-1.10;99.90;;;;;;5073819;28;20045;-56
2022/01/15 08:42:36;;;;;;;28.38;13.05;;;-1.00;99.90;;;;;;5075500;28;20044;-53
2022/01/15 08:45:06;;;;;;;24.10;11.75;;;-1.00;99.90;;;;;;5073601;28;20044;-57
2022/01/15 08:47:32;;;;;;;23.05;12.35;;;-0.90;99.90;;;;;;5073508;28;20103;-54
2022/01/15 08:50:00;;;;;;;26.92;12.43;;;-1.00;99.90;;;;;;5073836;28;20079;-53
2022/01/15 08:52:27;;;;;;;28.48;13.05;;;-1.00;99.90;;;;;;5073367;28;20083;-55
2022/01/15 08:54:54;;;;;;;31.73;12.60;;;-0.90;99.90;;;;;;5073703;28;20068;-54
2022/01/15 08:57:21;;;;;;;26.17;12.77;;;-0.90;99.90;;;;;;5073252;28;20041;-55
2022/01/15 08:59:48;;;;;;;31.17;13.65;;;-1.00;99.90;;;;;;5073155;28;20539;-55
2022/01/15 09:02:33;;;;;;;26.08;12.55;;;-0.90;99.90;;;;;;5073381;28;20086;-56
2022/01/15 09:05:00;;;;;;;35.53;14.48;;;-0.80;99.90;;;;;;5073336;28;20040;-56
2022/01/15 09:07:32;;;;;;;26.88;12.95;;;-0.80;99.90;;;;;;5073259;28;20123;-56
2022/01/15 09:09:59;;;;;;;28.38;13.23;;;-0.90;99.90;;;;;;5073268;28;20520;-55
2022/01/15 09:12:26;;;;;;;29.38;14.00;;;-0.90;99.90;;;;;;5073267;28;20045;-55
2022/01/15 09:14:58;;;;;;;35.33;14.38;;;-0.80;99.90;;;;;;5073231;28;20079;-55
2022/01/15 09:17:26;;;;;;;34.90;14.32;;;-0.80;99.90;;;;;;5072862;28;20045;-56
2022/01/15 09:19:54;;;;;;;32.30;15.80;;;-0.80;99.90;;;;;;5072699;28;20102;-56
2022/01/15 09:22:21;;;;;;;35.33;15.13;;;-0.80;99.90;;;;;;5072968;28;20086;-56
2022/01/15 09:24:48;;;;;;;33.75;15.15;;;-0.70;99.90;;;;;;5072956;28;20094;-56
2022/01/15 09:30:12;;;;;;;32.47;14.55;;;-0.80;99.90;;;;;;5072758;28;20492;-52
2022/01/15 09:32:39;;;;;;;;;;;-0.70;99.90;;;;;;5073128;28;20048;-56
2022/01/15 09:35:06;;;;;;;30.48;13.77;;;-0.80;99.90;;;;;;5072311;28;19959;-55
2022/01/15 09:37:33;;;;;;;30.20;14.20;;;-0.80;99.90;;;;;;5071974;28;20033;-55
2022/01/15 09:40:01;;;;;;;27.20;14.50;;;-0.80;99.90;;;;;;5072663;28;20045;-55
2022/01/15 09:42:29;;;;;;;30.13;13.98;;;-0.70;99.90;;;;;;5071973;28;20044;-55
2022/01/15 09:44:57;;;;;;;33.28;14.73;;;-0.70;99.90;;;;;;5072535;28;20367;-55
2022/01/15 09:47:26;;;;;;;52.95;19.55;;;-0.50;99.90;;;;;;5072094;28;20052;-56
2022/01/15 09:49:54;;;;;;;37.58;15.40;;;-0.40;99.90;;;;;;5071641;28;20067;-56
2022/01/15 09:52:21;;;;;;;33.78;15.38;;;-0.30;99.90;;;;;;5072282;28;20041;-54
2022/01/15 09:54:50;;;;;;;25.48;13.93;;;-0.30;99.90;;;;;;5072152;28;20090;-54
2022/01/15 09:57:18;;;;;;;27.63;13.23;;;-0.10;99.90;;;;;;5071816;28;20041;-56
2022/01/15 09:59:44;;;;;;;;;;;0.00;99.90;;;;;;5072816;28;20489;-55
2022/01/15 10:02:12;;;;;;;25.52;13.02;;;0.20;99.90;;;;;;5072235;28;19921;-55
2022/01/15 10:04:39;;;;;;;;;;;0.20;99.90;;;;;;5072745;28;20072;-56
2022/01/15 10:07:21;;;;;;;29.70;12.95;;;0.30;99.90;;;;;;5071684;28;20010;-56
2022/01/15 10:09:50;;;;;;;27.98;13.65;;;0.40;99.90;;;;;;5080964;28;20090;-54
2022/01/15 10:12:31;;;;;;;31.05;13.73;;;0.30;99.90;;;;;;5082119;28;20483;-55
2022/01/15 10:15:06;;;;;;;28.17;13.23;;;0.40;99.90;;;;;;5082801;28;20127;-55
2022/01/15 10:17:35;;;;;;;27.67;12.40;;;0.50;99.90;;;;;;5083404;28;20108;-56
2022/01/15 10:20:06;;;;;;;23.13;11.30;;;0.50;99.90;;;;;;5086560;28;20056;-56
2022/01/15 10:22:34;;;;;;;22.80;12.40;;;0.60;99.90;;;;;;5077093;28;20045;-56
2022/01/15 10:25:06;;;;;;;24.23;12.32;;;0.50;99.90;;;;;;5077910;28;20082;-55
2022/01/15 10:27:35;;;;;;;26.52;12.00;;;0.60;99.90;;;;;;5080139;28;20048;-55
2022/01/15 10:30:14;;;;;;;23.35;11.88;;;0.60;99.90;;;;;;5085008;28;20036;-54
2022/01/15 10:32:55;;;;;;;25.27;13.32;;;0.70;99.90;;;;;;5091663;28;20036;-54
2022/01/15 10:35:24;;;;;;;24.02;13.52;;;0.60;99.90;;;;;;5091415;28;20069;-55
2022/01/15 10:38:03;;;;;;;23.25;13.10;;;0.50;99.90;;;;;;5091197;28;20036;-55
2022/01/15 10:40:45;;;;;;;29.20;12.68;;;0.60;99.90;;;;;;5091852;28;20040;-56
2022/01/15 10:43:18;;;;;;;28.13;12.38;;;0.60;99.90;;;;;;5091850;28;20048;-56
2022/01/15 10:45:57;;;;;;;21.23;11.75;;;0.80;99.90;;;;;;5091475;28;20101;-55
2022/01/15 10:48:32;;;;;;;27.52;12.98;;;0.90;99.90;;;;;;5091648;28;20123;-53
2022/01/15 10:51:03;;;;;;;23.65;11.85;;;1.00;99.90;;;;;;5091727;28;20054;-57
2022/01/15 10:53:34;;;;;;;23.00;11.82;;;1.10;99.90;;;;;;5091717;28;20202;-55
2022/01/15 10:56:01;;;;;;;23.52;11.45;;;1.20;99.90;;;;;;5091435;28;20658;-56
2022/01/15 10:58:28;;;;;;;;;;;1.30;99.90;;;;;;5091839;28;20040;-56
2022/01/15 11:00:55;;;;;;;19.55;9.98;;;1.50;99.90;;;;;;5091704;28;20534;-57
2022/01/15 11:03:24;;;;;;;22.38;11.02;;;1.50;99.90;;;;;;5091646;28;20085;-57
2022/01/15 11:05:52;;;;;;;21.00;10.05;;;1.60;99.90;;;;;;5090693;28;20047;-57
2022/01/15 11:08:21;;;;;;;18.40;8.95;;;1.60;99.90;;;;;;5091414;28;20051;-57
2022/01/15 11:10:54;;;;;;;15.07;8.63;;;1.70;99.90;;;;;;5091395;28;20104;-56
2022/01/15 11:13:26;;;;;;;14.60;8.85;;;1.70;99.90;;;;;;5091179;28;20056;-56
2022/01/15 11:15:57;;;;;;;14.60;7.85;;;1.80;99.90;;;;;;5091031;28;20408;-56
2022/01/15 11:18:27;;;;;;;15.38;8.77;;;1.90;99.90;;;;;;5091284;28;20106;-56
2022/01/15 11:20:59;;;;;;;18.48;8.48;;;2.00;99.90;;;;;;5091352;28;20146;-55
2022/01/15 11:23:28;;;;;;;13.38;7.32;;;2.20;99.90;;;;;;5091399;28;20048;-55
2022/01/15 11:25:57;;;;;;;12.93;8.45;;;2.20;99.90;;;;;;5090901;28;20101;-55
2022/01/15 11:28:30;;;;;;;12.68;7.93;;;2.20;99.90;;;;;;5091285;28;20040;-56
2022/01/15 11:31:07;;;;;;;13.70;8.07;;;2.20;99.90;;;;;;5091185;28;20051;-56
2022/01/15 11:33:40;;;;;;;16.65;7.72;;;2.20;99.90;;;;;;5091457;28;20109;-57
2022/01/15 11:36:26;;;;;;;11.73;7.28;;;2.20;99.90;;;;;;5090712;28;20036;-56
2022/01/15 11:38:53;;;;;;;14.82;8.18;;;2.30;99.90;;;;;;5091236;28;20051;-56
2022/01/15 11:41:35;;;;;;;14.18;7.57;;;2.40;99.90;;;;;;5091240;28;20036;-56
2022/01/15 11:44:12;;;;;;;13.07;7.90;;;2.40;99.90;;;;;;5091188;28;20048;-57
2022/01/15 11:46:42;;;;;;;14.40;7.63;;;2.50;99.90;;;;;;5090942;28;20044;-56
2022/01/15 11:49:28;;;;;;;11.13;7.28;;;2.60;99.90;;;;;;5091024;28;20044;-55
2022/01/15 11:51:55;;;;;;;13.80;7.15;;;2.50;99.90;;;;;;5091005;28;20085;-56
2022/01/15 11:54:23;;;;;;;;;;;2.60;99.90;;;;;;5091752;28;20085;-56
2022/01/15 11:56:50;;;;;;;19.02;8.07;;;2.60;99.90;;;;;;5090784;28;19930;-57
2022/01/15 11:59:26;;;;;;;18.20;7.53;;;2.60;99.90;;;;;;5091024;28;20036;-56
2022/01/15 12:02:05;;;;;;;13.30;7.50;;;2.60;99.90;;;;;;5091278;28;20036;-54
2022/01/15 12:04:39;;;;;;;11.82;6.50;;;2.70;99.90;;;;;;5090584;28;20052;-56
2022/01/15 12:07:05;;;;;;;13.10;7.20;;;2.80;99.90;;;;;;5090608;28;20040;-57
2022/01/15 12:09:43;;;;;;;12.50;8.02;;;2.70;99.90;;;;;;5085456;28;20066;-56
2022/01/15 12:12:30;;;;;;;15.55;8.63;;;2.80;99.90;;;;;;5081541;28;20142;-56
2022/01/15 12:14:56;;;;;;;14.50;7.80;;;2.80;99.90;;;;;;5081600;28;20124;-57
2022/01/15 12:17:31;;;;;;;13.75;7.72;;;2.90;99.90;;;;;;5079588;28;20093;-53
2022/01/15 12:20:03;;;;;;;15.38;8.32;;;2.90;99.90;;;;;;5082958;28;20485;-55
2022/01/15 12:22:37;;;;;;;18.30;9.75;;;2.90;99.90;;;;;;5079378;28;20036;-57
2022/01/15 12:25:06;;;;;;;17.67;9.30;;;2.90;99.90;;;;;;5074057;28;20049;-58
2022/01/15 12:27:34;;;;;;;14.68;8.88;;;3.00;99.90;;;;;;5074065;28;20086;-56
2022/01/15 12:30:18;;;;;;;14.15;9.07;;;3.10;99.90;;;;;;5074194;28;20045;-57
2022/01/15 12:32:57;;;;;;;14.63;9.32;;;3.10;99.90;;;;;;5073980;28;20551;-55
2022/01/15 12:35:53;;;;;;;15.07;8.80;;;3.10;99.90;;;;;;5084787;28;20101;-54
2022/01/15 12:38:26;;;;;;;16.08;9.13;;;3.10;99.90;;;;;;5094077;28;20488;-57
2022/01/15 12:41:02;;;;;;;15.18;8.65;;;3.10;99.90;;;;;;5093885;28;20105;-56
2022/01/15 12:43:32;;;;;;;17.15;8.98;;;3.10;99.90;;;;;;5094124;28;20094;-57
2022/01/15 12:46:11;;;;;;;16.70;9.48;;;3.10;99.90;;;;;;5093536;28;20094;-56
2022/01/15 12:48:40;;;;;;;17.23;9.32;;;3.10;99.90;;;;;;5094075;28;20127;-56
2022/01/15 12:51:10;;;;;;;16.33;9.00;;;3.20;99.90;;;;;;5093785;28;20040;-56
2022/01/15 12:53:40;;;;;;;14.85;8.57;;;3.20;99.90;;;;;;5094240;28;20044;-56
2022/01/15 12:56:09;;;;;;;16.88;9.93;;;3.20;99.90;;;;;;5093360;28;20044;-55
2022/01/15 12:58:36;;;;;;;20.63;11.35;;;3.30;99.90;;;;;;5093412;28;20040;-56
2022/01/15 13:01:03;;;;;;;20.33;11.57;;;3.30;99.90;;;;;;5093817;28;20051;-55
2022/01/15 13:03:31;;;;;;;23.98;12.52;;;3.30;99.90;;;;;;5093557;28;20039;-57
2022/01/15 13:06:01;;;;;;;21.77;12.93;;;3.20;99.90;;;;;;5089236;28;20044;-57
2022/01/15 13:08:32;;;;;;;20.75;12.63;;;3.20;99.90;;;;;;5083553;28;20044;-56